sensor_id;sensor_type;location;lat;lon;timestamp;P1;durP1;ratioP1;P2;durP2;ratioP2
20042;SDS011;10182;52.896;6.496;2023-05-16T00:04:03;14.40;;;4.37;;
20042;SDS011;10182;52.896;6.496;2023-05-16T00:09:05;14.40;;;3.97;;
20042;SDS011;10182;52.896;6.496;2023-05-16T00:14:08;15.73;;;3.97;;
20042;SDS011;10182;52.896;6.496;2023-05-16T00:19:10;16.33;;;3.60;;
20042;SDS011;10182;52.896;6.496;2023-05-16T00:24:12;16.80;;;3.87;;
20042;SDS011;10182;52.896;6.496;2023-05-16T00:29:16;12.50;;;3.53;;
20042;SDS011;10182;52.896;6.496;2023-05-16T00:34:17;19.87;;;3.83;;
20042;SDS011;10182;52.896;6.496;2023-05-16T00:39:20;11.63;;;2.57;;
20042;SDS011;10182;52.896;6.496;2023-05-16T00:44:23;18.57;;;3.67;;
20042;SDS011;10182;52.896;6.496;2023-05-16T00:49:25;17.87;;;3.80;;
20042;SDS011;10182;52.896;6.496;2023-05-16T00:54:26;14.33;;;3.43;;
20042;SDS011;10182;52.896;6.496;2023-05-16T00:59:31;14.03;;;3.90;;
20042;SDS011;10182;52.896;6.496;2023-05-16T01:04:33;13.90;;;3.30;;
20042;SDS011;10182;52.896;6.496;2023-05-16T01:09:36;14.43;;;3.10;;
20042;SDS011;10182;52.896;6.496;2023-05-16T01:14:41;13.43;;;3.17;;
20042;SDS011;10182;52.896;6.496;2023-05-16T01:19:53;12.83;;;2.83;;
20042;SDS011;10182;52.896;6.496;2023-05-16T01:25:18;12.97;;;2.90;;
20042;SDS011;10182;52.896;6.496;2023-05-16T01:30:35;17.20;;;3.30;;
20042;SDS011;10182;52.896;6.496;2023-05-16T01:35:42;13.00;;;2.97;;
20042;SDS011;10182;52.896;6.496;2023-05-16T01:40:57;14.00;;;3.33;;
20042;SDS011;10182;52.896;6.496;2023-05-16T01:46:08;17.37;;;2.93;;
20042;SDS011;10182;52.896;6.496;2023-05-16T01:51:12;12.43;;;3.27;;
20042;SDS011;10182;52.896;6.496;2023-05-16T01:56:15;14.57;;;2.87;;
20042;SDS011;10182;52.896;6.496;2023-05-16T02:01:18;11.10;;;2.93;;
20042;SDS011;10182;52.896;6.496;2023-05-16T02:06:20;13.47;;;2.93;;
20042;SDS011;10182;52.896;6.496;2023-05-16T02:11:23;15.63;;;3.13;;
20042;SDS011;10182;52.896;6.496;2023-05-16T02:16:26;15.63;;;2.70;;
20042;SDS011;10182;52.896;6.496;2023-05-16T02:21:29;14.07;;;3.03;;
20042;SDS011;10182;52.896;6.496;2023-05-16T02:26:31;15.97;;;2.90;;
20042;SDS011;10182;52.896;6.496;2023-05-16T02:31:34;11.70;;;3.97;;
20042;SDS011;10182;52.896;6.496;2023-05-16T02:36:36;13.60;;;2.60;;
20042;SDS011;10182;52.896;6.496;2023-05-16T02:41:37;14.33;;;3.70;;
20042;SDS011;10182;52.896;6.496;2023-05-16T02:46:41;14.20;;;3.00;;
20042;SDS011;10182;52.896;6.496;2023-05-16T02:51:42;17.00;;;3.03;;
20042;SDS011;10182;52.896;6.496;2023-05-16T02:56:44;16.27;;;3.27;;
20042;SDS011;10182;52.896;6.496;2023-05-16T03:01:47;9.00;;;2.83;;
20042;SDS011;10182;52.896;6.496;2023-05-16T03:06:49;10.23;;;3.03;;
20042;SDS011;10182;52.896;6.496;2023-05-16T03:11:51;12.73;;;2.90;;
20042;SDS011;10182;52.896;6.496;2023-05-16T03:16:54;10.73;;;2.80;;
20042;SDS011;10182;52.896;6.496;2023-05-16T03:21:55;12.60;;;3.30;;
20042;SDS011;10182;52.896;6.496;2023-05-16T03:26:57;14.53;;;3.23;;
20042;SDS011;10182;52.896;6.496;2023-05-16T03:32:01;9.90;;;2.60;;
20042;SDS011;10182;52.896;6.496;2023-05-16T03:37:02;11.83;;;3.20;;
20042;SDS011;10182;52.896;6.496;2023-05-16T03:42:05;12.27;;;3.27;;
20042;SDS011;10182;52.896;6.496;2023-05-16T03:47:08;15.23;;;3.37;;
20042;SDS011;10182;52.896;6.496;2023-05-16T03:52:09;10.43;;;3.27;;
20042;SDS011;10182;52.896;6.496;2023-05-16T03:57:11;13.00;;;3.17;;
20042;SDS011;10182;52.896;6.496;2023-05-16T04:02:14;10.47;;;3.30;;
20042;SDS011;10182;52.896;6.496;2023-05-16T04:07:16;13.30;;;3.17;;
20042;SDS011;10182;52.896;6.496;2023-05-16T04:12:17;17.20;;;3.53;;
20042;SDS011;10182;52.896;6.496;2023-05-16T04:17:20;13.83;;;3.13;;
20042;SDS011;10182;52.896;6.496;2023-05-16T04:22:22;17.53;;;3.77;;
20042;SDS011;10182;52.896;6.496;2023-05-16T04:27:24;15.77;;;3.40;;
20042;SDS011;10182;52.896;6.496;2023-05-16T04:32:28;13.47;;;3.90;;
20042;SDS011;10182;52.896;6.496;2023-05-16T04:37:30;10.83;;;3.57;;
20042;SDS011;10182;52.896;6.496;2023-05-16T04:42:31;11.77;;;3.13;;
20042;SDS011;10182;52.896;6.496;2023-05-16T04:47:35;10.47;;;3.33;;
20042;SDS011;10182;52.896;6.496;2023-05-16T04:52:37;12.30;;;3.23;;
20042;SDS011;10182;52.896;6.496;2023-05-16T04:57:38;13.23;;;3.23;;
20042;SDS011;10182;52.896;6.496;2023-05-16T05:02:41;13.93;;;2.80;;
20042;SDS011;10182;52.896;6.496;2023-05-16T05:07:43;11.73;;;3.07;;
20042;SDS011;10182;52.896;6.496;2023-05-16T05:12:45;13.57;;;3.60;;
20042;SDS011;10182;52.896;6.496;2023-05-16T05:17:48;9.10;;;2.50;;
20042;SDS011;10182;52.896;6.496;2023-05-16T05:22:50;9.50;;;2.80;;
20042;SDS011;10182;52.896;6.496;2023-05-16T05:27:52;9.37;;;2.37;;
20042;SDS011;10182;52.896;6.496;2023-05-16T05:32:55;8.93;;;2.57;;
20042;SDS011;10182;52.896;6.496;2023-05-16T05:37:58;8.07;;;2.17;;
20042;SDS011;10182;52.896;6.496;2023-05-16T05:42:59;8.43;;;2.77;;
20042;SDS011;10182;52.896;6.496;2023-05-16T05:48:02;14.90;;;2.50;;
20042;SDS011;10182;52.896;6.496;2023-05-16T05:53:04;8.63;;;3.10;;
20042;SDS011;10182;52.896;6.496;2023-05-16T05:58:06;12.50;;;2.73;;
20042;SDS011;10182;52.896;6.496;2023-05-16T06:03:09;10.50;;;2.27;;
20042;SDS011;10182;52.896;6.496;2023-05-16T06:08:11;12.63;;;2.97;;
20042;SDS011;10182;52.896;6.496;2023-05-16T06:13:12;7.33;;;2.03;;
20042;SDS011;10182;52.896;6.496;2023-05-16T06:18:15;11.70;;;2.50;;
20042;SDS011;10182;52.896;6.496;2023-05-16T06:23:17;14.43;;;2.47;;
20042;SDS011;10182;52.896;6.496;2023-05-16T06:28:19;9.90;;;2.17;;
20042;SDS011;10182;52.896;6.496;2023-05-16T06:33:22;8.57;;;2.60;;
20042;SDS011;10182;52.896;6.496;2023-05-16T06:38:23;11.57;;;2.47;;
20042;SDS011;10182;52.896;6.496;2023-05-16T06:43:25;11.03;;;2.77;;
20042;SDS011;10182;52.896;6.496;2023-05-16T06:48:28;2.80;;;0.77;;
20042;SDS011;10182;52.896;6.496;2023-05-16T06:53:30;2.33;;;0.80;;
20042;SDS011;10182;52.896;6.496;2023-05-16T06:58:31;2.73;;;0.93;;
20042;SDS011;10182;52.896;6.496;2023-05-16T07:03:35;2.60;;;0.83;;
20042;SDS011;10182;52.896;6.496;2023-05-16T07:08:37;1.43;;;0.87;;
20042;SDS011;10182;52.896;6.496;2023-05-16T07:13:38;7.03;;;1.20;;
20042;SDS011;10182;52.896;6.496;2023-05-16T07:18:41;9.50;;;2.00;;
20042;SDS011;10182;52.896;6.496;2023-05-16T07:23:43;4.37;;;1.97;;
20042;SDS011;10182;52.896;6.496;2023-05-16T07:28:45;5.80;;;1.63;;
20042;SDS011;10182;52.896;6.496;2023-05-16T07:33:48;10.13;;;2.00;;
20042;SDS011;10182;52.896;6.496;2023-05-16T07:38:50;5.77;;;1.67;;
20042;SDS011;10182;52.896;6.496;2023-05-16T07:43:51;6.30;;;1.20;;
20042;SDS011;10182;52.896;6.496;2023-05-16T07:48:54;4.67;;;1.53;;
20042;SDS011;10182;52.896;6.496;2023-05-16T07:53:56;8.33;;;1.67;;
20042;SDS011;10182;52.896;6.496;2023-05-16T07:58:58;8.73;;;1.70;;
20042;SDS011;10182;52.896;6.496;2023-05-16T08:04:01;6.03;;;1.63;;
20042;SDS011;10182;52.896;6.496;2023-05-16T08:09:03;10.93;;;1.83;;
20042;SDS011;10182;52.896;6.496;2023-05-16T08:14:05;9.20;;;1.33;;
20042;SDS011;10182;52.896;6.496;2023-05-16T08:19:08;8.27;;;1.77;;
20042;SDS011;10182;52.896;6.496;2023-05-16T08:24:10;6.23;;;1.70;;
20042;SDS011;10182;52.896;6.496;2023-05-16T08:29:11;7.17;;;2.30;;
20042;SDS011;10182;52.896;6.496;2023-05-16T08:34:15;9.60;;;2.33;;
20042;SDS011;10182;52.896;6.496;2023-05-16T08:39:16;4.77;;;1.67;;
20042;SDS011;10182;52.896;6.496;2023-05-16T08:44:18;5.27;;;1.50;;
20042;SDS011;10182;52.896;6.496;2023-05-16T08:49:22;10.37;;;2.20;;
20042;SDS011;10182;52.896;6.496;2023-05-16T08:54:27;6.07;;;1.30;;
20042;SDS011;10182;52.896;6.496;2023-05-16T08:59:30;6.57;;;1.73;;
20042;SDS011;10182;52.896;6.496;2023-05-16T09:04:33;8.53;;;1.73;;
20042;SDS011;10182;52.896;6.496;2023-05-16T09:09:37;9.00;;;1.13;;
20042;SDS011;10182;52.896;6.496;2023-05-16T09:14:38;5.90;;;1.60;;
20042;SDS011;10182;52.896;6.496;2023-05-16T09:19:42;6.33;;;1.47;;
20042;SDS011;10182;52.896;6.496;2023-05-16T09:24:45;8.57;;;2.07;;
20042;SDS011;10182;52.896;6.496;2023-05-16T09:29:49;5.50;;;1.67;;
20042;SDS011;10182;52.896;6.496;2023-05-16T09:34:53;8.23;;;2.07;;
20042;SDS011;10182;52.896;6.496;2023-05-16T09:39:57;8.90;;;1.80;;
20042;SDS011;10182;52.896;6.496;2023-05-16T09:44:59;7.20;;;1.77;;
20042;SDS011;10182;52.896;6.496;2023-05-16T09:50:02;7.63;;;1.63;;
20042;SDS011;10182;52.896;6.496;2023-05-16T09:55:05;9.73;;;1.70;;
20042;SDS011;10182;52.896;6.496;2023-05-16T10:00:09;9.00;;;2.00;;
20042;SDS011;10182;52.896;6.496;2023-05-16T10:05:13;8.90;;;1.90;;
20042;SDS011;10182;52.896;6.496;2023-05-16T10:10:16;5.50;;;1.27;;
20042;SDS011;10182;52.896;6.496;2023-05-16T10:15:19;9.87;;;1.97;;
20042;SDS011;10182;52.896;6.496;2023-05-16T10:20:23;5.90;;;1.27;;
20042;SDS011;10182;52.896;6.496;2023-05-16T10:25:27;8.10;;;1.60;;
20042;SDS011;10182;52.896;6.496;2023-05-16T10:30:32;4.97;;;1.40;;
20042;SDS011;10182;52.896;6.496;2023-05-16T10:35:36;6.00;;;1.70;;
20042;SDS011;10182;52.896;6.496;2023-05-16T10:40:38;9.03;;;1.70;;
20042;SDS011;10182;52.896;6.496;2023-05-16T10:45:40;4.40;;;1.47;;
20042;SDS011;10182;52.896;6.496;2023-05-16T10:50:44;4.20;;;1.40;;
20042;SDS011;10182;52.896;6.496;2023-05-16T10:55:50;5.30;;;1.00;;
20042;SDS011;10182;52.896;6.496;2023-05-16T11:01:14;4.93;;;0.90;;
20042;SDS011;10182;52.896;6.496;2023-05-16T11:06:22;4.77;;;1.00;;
20042;SDS011;10182;52.896;6.496;2023-05-16T11:11:40;6.07;;;1.47;;
20042;SDS011;10182;52.896;6.496;2023-05-16T11:16:46;7.23;;;1.57;;
20042;SDS011;10182;52.896;6.496;2023-05-16T11:22:07;6.23;;;1.50;;
20042;SDS011;10182;52.896;6.496;2023-05-16T11:27:10;11.80;;;2.13;;
20042;SDS011;10182;52.896;6.496;2023-05-16T11:32:16;5.53;;;2.00;;
20042;SDS011;10182;52.896;6.496;2023-05-16T11:37:21;5.63;;;1.90;;
20042;SDS011;10182;52.896;6.496;2023-05-16T11:42:23;8.67;;;1.57;;
20042;SDS011;10182;52.896;6.496;2023-05-16T11:47:25;10.10;;;2.03;;
20042;SDS011;10182;52.896;6.496;2023-05-16T11:52:30;4.10;;;1.57;;
20042;SDS011;10182;52.896;6.496;2023-05-16T11:57:32;5.67;;;1.90;;
20042;SDS011;10182;52.896;6.496;2023-05-16T12:02:34;8.43;;;2.30;;
20042;SDS011;10182;52.896;6.496;2023-05-16T12:07:37;9.77;;;2.33;;
20042;SDS011;10182;52.896;6.496;2023-05-16T12:12:40;5.10;;;2.27;;
20042;SDS011;10182;52.896;6.496;2023-05-16T12:17:43;6.87;;;2.10;;
20042;SDS011;10182;52.896;6.496;2023-05-16T12:22:47;5.50;;;2.10;;
20042;SDS011;10182;52.896;6.496;2023-05-16T12:27:48;6.73;;;2.07;;
20042;SDS011;10182;52.896;6.496;2023-05-16T12:32:56;7.70;;;2.23;;
20042;SDS011;10182;52.896;6.496;2023-05-16T12:38:00;6.40;;;2.67;;
20042;SDS011;10182;52.896;6.496;2023-05-16T12:43:04;5.13;;;2.20;;
20042;SDS011;10182;52.896;6.496;2023-05-16T12:48:13;5.60;;;2.47;;
20042;SDS011;10182;52.896;6.496;2023-05-16T12:53:16;7.37;;;2.63;;
20042;SDS011;10182;52.896;6.496;2023-05-16T12:58:18;11.33;;;2.97;;
20042;SDS011;10182;52.896;6.496;2023-05-16T13:03:21;7.60;;;2.87;;
20042;SDS011;10182;52.896;6.496;2023-05-16T13:08:24;7.47;;;2.40;;
20042;SDS011;10182;52.896;6.496;2023-05-16T13:13:26;7.33;;;2.77;;
20042;SDS011;10182;52.896;6.496;2023-05-16T13:18:27;6.37;;;2.73;;
20042;SDS011;10182;52.896;6.496;2023-05-16T13:23:31;5.90;;;2.97;;
20042;SDS011;10182;52.896;6.496;2023-05-16T13:28:33;11.73;;;3.23;;
20042;SDS011;10182;52.896;6.496;2023-05-16T13:33:35;8.57;;;2.80;;
20042;SDS011;10182;52.896;6.496;2023-05-16T13:38:38;5.63;;;3.13;;
20042;SDS011;10182;52.896;6.496;2023-05-16T13:43:40;7.03;;;3.13;;
20042;SDS011;10182;52.896;6.496;2023-05-16T13:48:42;10.13;;;3.90;;
20042;SDS011;10182;52.896;6.496;2023-05-16T13:53:45;7.43;;;3.57;;
20042;SDS011;10182;52.896;6.496;2023-05-16T13:58:47;6.60;;;2.80;;
20042;SDS011;10182;52.896;6.496;2023-05-16T14:03:49;8.50;;;2.60;;
20042;SDS011;10182;52.896;6.496;2023-05-16T14:08:52;7.27;;;3.73;;
20042;SDS011;10182;52.896;6.496;2023-05-16T14:13:54;7.80;;;3.50;;
20042;SDS011;10182;52.896;6.496;2023-05-16T14:18:56;10.47;;;3.83;;
20042;SDS011;10182;52.896;6.496;2023-05-16T14:23:59;7.40;;;4.07;;
20042;SDS011;10182;52.896;6.496;2023-05-16T14:29:01;10.90;;;5.10;;
20042;SDS011;10182;52.896;6.496;2023-05-16T14:34:03;4.67;;;2.60;;
20042;SDS011;10182;52.896;6.496;2023-05-16T14:39:06;6.70;;;2.90;;
20042;SDS011;10182;52.896;6.496;2023-05-16T14:44:08;5.53;;;3.00;;
20042;SDS011;10182;52.896;6.496;2023-05-16T14:49:10;7.30;;;3.10;;
20042;SDS011;10182;52.896;6.496;2023-05-16T14:54:13;7.17;;;3.10;;
20042;SDS011;10182;52.896;6.496;2023-05-16T14:59:15;6.90;;;2.93;;
20042;SDS011;10182;52.896;6.496;2023-05-16T15:04:17;8.10;;;3.23;;
20042;SDS011;10182;52.896;6.496;2023-05-16T15:09:20;7.23;;;2.63;;
20042;SDS011;10182;52.896;6.496;2023-05-16T15:14:22;9.17;;;3.03;;
20042;SDS011;10182;52.896;6.496;2023-05-16T15:19:26;8.37;;;3.07;;
20042;SDS011;10182;52.896;6.496;2023-05-16T15:24:29;6.67;;;2.70;;
20042;SDS011;10182;52.896;6.496;2023-05-16T15:29:31;6.67;;;2.27;;
20042;SDS011;10182;52.896;6.496;2023-05-16T15:34:33;8.83;;;2.50;;
20042;SDS011;10182;52.896;6.496;2023-05-16T15:39:37;6.23;;;2.23;;
20042;SDS011;10182;52.896;6.496;2023-05-16T15:44:38;5.83;;;2.57;;
20042;SDS011;10182;52.896;6.496;2023-05-16T15:49:40;5.37;;;2.50;;
20042;SDS011;10182;52.896;6.496;2023-05-16T15:54:43;6.43;;;1.80;;
20042;SDS011;10182;52.896;6.496;2023-05-16T15:59:45;5.23;;;1.90;;
20042;SDS011;10182;52.896;6.496;2023-05-16T16:04:46;3.10;;;1.77;;
20042;SDS011;10182;52.896;6.496;2023-05-16T16:09:50;4.57;;;2.10;;
20042;SDS011;10182;52.896;6.496;2023-05-16T16:14:51;6.83;;;2.20;;
20042;SDS011;10182;52.896;6.496;2023-05-16T16:19:53;4.50;;;1.93;;
20042;SDS011;10182;52.896;6.496;2023-05-16T16:24:56;5.63;;;2.40;;
20042;SDS011;10182;52.896;6.496;2023-05-16T16:29:59;3.47;;;2.10;;
20042;SDS011;10182;52.896;6.496;2023-05-16T16:35:01;6.60;;;2.20;;
20042;SDS011;10182;52.896;6.496;2023-05-16T16:40:07;5.63;;;2.20;;
20042;SDS011;10182;52.896;6.496;2023-05-16T16:45:09;4.10;;;2.00;;
20042;SDS011;10182;52.896;6.496;2023-05-16T16:50:11;5.70;;;2.10;;
20042;SDS011;10182;52.896;6.496;2023-05-16T16:55:15;10.73;;;2.70;;
20042;SDS011;10182;52.896;6.496;2023-05-16T17:00:17;6.50;;;1.90;;
20042;SDS011;10182;52.896;6.496;2023-05-16T17:05:19;7.23;;;1.60;;
20042;SDS011;10182;52.896;6.496;2023-05-16T17:10:22;7.33;;;1.53;;
20042;SDS011;10182;52.896;6.496;2023-05-16T17:15:24;4.63;;;1.20;;
20042;SDS011;10182;52.896;6.496;2023-05-16T17:20:25;5.60;;;1.40;;
20042;SDS011;10182;52.896;6.496;2023-05-16T17:25:29;7.37;;;1.43;;
20042;SDS011;10182;52.896;6.496;2023-05-16T17:30:31;5.70;;;1.40;;
20042;SDS011;10182;52.896;6.496;2023-05-16T17:35:33;1.70;;;0.73;;
20042;SDS011;10182;52.896;6.496;2023-05-16T17:40:36;3.83;;;1.60;;
20042;SDS011;10182;52.896;6.496;2023-05-16T17:45:38;3.97;;;1.10;;
20042;SDS011;10182;52.896;6.496;2023-05-16T17:50:39;3.57;;;1.10;;
20042;SDS011;10182;52.896;6.496;2023-05-16T17:55:43;3.47;;;1.23;;
20042;SDS011;10182;52.896;6.496;2023-05-16T18:00:45;3.67;;;1.17;;
20042;SDS011;10182;52.896;6.496;2023-05-16T18:05:47;5.77;;;1.90;;
20042;SDS011;10182;52.896;6.496;2023-05-16T18:10:51;5.30;;;2.07;;
20042;SDS011;10182;52.896;6.496;2023-05-16T18:15:53;6.57;;;2.30;;
20042;SDS011;10182;52.896;6.496;2023-05-16T18:20:54;4.87;;;2.43;;
20042;SDS011;10182;52.896;6.496;2023-05-16T18:25:58;9.57;;;2.80;;
20042;SDS011;10182;52.896;6.496;2023-05-16T18:31:00;8.90;;;3.37;;
20042;SDS011;10182;52.896;6.496;2023-05-16T18:36:03;8.23;;;3.00;;
20042;SDS011;10182;52.896;6.496;2023-05-16T18:41:06;9.30;;;3.23;;
20042;SDS011;10182;52.896;6.496;2023-05-16T18:46:08;7.50;;;3.10;;
20042;SDS011;10182;52.896;6.496;2023-05-16T18:51:09;10.63;;;3.17;;
20042;SDS011;10182;52.896;6.496;2023-05-16T18:56:13;8.03;;;3.20;;
20042;SDS011;10182;52.896;6.496;2023-05-16T19:01:14;7.27;;;3.37;;
20042;SDS011;10182;52.896;6.496;2023-05-16T19:06:16;9.93;;;3.30;;
20042;SDS011;10182;52.896;6.496;2023-05-16T19:11:19;8.83;;;3.27;;
20042;SDS011;10182;52.896;6.496;2023-05-16T19:16:21;10.43;;;3.67;;
20042;SDS011;10182;52.896;6.496;2023-05-16T19:21:23;8.17;;;3.20;;
20042;SDS011;10182;52.896;6.496;2023-05-16T19:26:26;11.37;;;3.63;;
20042;SDS011;10182;52.896;6.496;2023-05-16T19:31:30;10.80;;;3.43;;
20042;SDS011;10182;52.896;6.496;2023-05-16T19:36:34;11.50;;;3.37;;
20042;SDS011;10182;52.896;6.496;2023-05-16T19:41:37;9.73;;;3.60;;
20042;SDS011;10182;52.896;6.496;2023-05-16T19:46:39;14.63;;;3.80;;
20042;SDS011;10182;52.896;6.496;2023-05-16T19:51:41;11.40;;;3.33;;
20042;SDS011;10182;52.896;6.496;2023-05-16T19:56:44;9.47;;;3.83;;
20042;SDS011;10182;52.896;6.496;2023-05-16T20:01:46;14.50;;;4.00;;
20042;SDS011;10182;52.896;6.496;2023-05-16T20:06:47;10.57;;;3.93;;
20042;SDS011;10182;52.896;6.496;2023-05-16T20:11:51;15.20;;;4.33;;
20042;SDS011;10182;52.896;6.496;2023-05-16T20:16:52;15.17;;;4.57;;
20042;SDS011;10182;52.896;6.496;2023-05-16T20:21:54;13.77;;;4.60;;
20042;SDS011;10182;52.896;6.496;2023-05-16T20:26:57;10.87;;;4.57;;
20042;SDS011;10182;52.896;6.496;2023-05-16T20:32:00;11.67;;;3.97;;
20042;SDS011;10182;52.896;6.496;2023-05-16T20:37:03;13.93;;;5.30;;
20042;SDS011;10182;52.896;6.496;2023-05-16T20:42:06;18.17;;;5.13;;
20042;SDS011;10182;52.896;6.496;2023-05-16T20:47:10;18.70;;;4.83;;
20042;SDS011;10182;52.896;6.496;2023-05-16T20:52:11;14.87;;;5.00;;
20042;SDS011;10182;52.896;6.496;2023-05-16T20:57:14;22.73;;;5.17;;
20042;SDS011;10182;52.896;6.496;2023-05-16T21:02:16;15.07;;;5.23;;
20042;SDS011;10182;52.896;6.496;2023-05-16T21:07:19;16.70;;;5.97;;
20042;SDS011;10182;52.896;6.496;2023-05-16T21:12:23;19.37;;;6.10;;
20042;SDS011;10182;52.896;6.496;2023-05-16T21:17:24;17.00;;;6.07;;
20042;SDS011;10182;52.896;6.496;2023-05-16T21:22:26;16.50;;;5.57;;
20042;SDS011;10182;52.896;6.496;2023-05-16T21:27:29;16.03;;;5.47;;
20042;SDS011;10182;52.896;6.496;2023-05-16T21:32:32;16.30;;;5.80;;
20042;SDS011;10182;52.896;6.496;2023-05-16T21:37:33;17.73;;;5.30;;
20042;SDS011;10182;52.896;6.496;2023-05-16T21:42:36;13.47;;;5.17;;
20042;SDS011;10182;52.896;6.496;2023-05-16T21:47:38;11.37;;;5.70;;
20042;SDS011;10182;52.896;6.496;2023-05-16T21:52:40;13.20;;;5.50;;
20042;SDS011;10182;52.896;6.496;2023-05-16T21:57:43;17.40;;;5.73;;
20042;SDS011;10182;52.896;6.496;2023-05-16T22:02:44;12.97;;;5.57;;
20042;SDS011;10182;52.896;6.496;2023-05-16T22:07:47;20.77;;;6.07;;
20042;SDS011;10182;52.896;6.496;2023-05-16T22:12:50;17.97;;;5.37;;
20042;SDS011;10182;52.896;6.496;2023-05-16T22:17:52;21.50;;;6.23;;
20042;SDS011;10182;52.896;6.496;2023-05-16T22:22:53;22.23;;;6.40;;
20042;SDS011;10182;52.896;6.496;2023-05-16T22:27:57;19.50;;;6.27;;
20042;SDS011;10182;52.896;6.496;2023-05-16T22:32:58;17.37;;;5.83;;
20042;SDS011;10182;52.896;6.496;2023-05-16T22:38:02;18.80;;;6.43;;
20042;SDS011;10182;52.896;6.496;2023-05-16T22:43:05;20.50;;;6.10;;
20042;SDS011;10182;52.896;6.496;2023-05-16T22:48:07;21.27;;;6.53;;
20042;SDS011;10182;52.896;6.496;2023-05-16T22:53:09;16.93;;;6.20;;
20042;SDS011;10182;52.896;6.496;2023-05-16T22:58:12;22.67;;;6.87;;
20042;SDS011;10182;52.896;6.496;2023-05-16T23:03:13;18.43;;;6.70;;
20042;SDS011;10182;52.896;6.496;2023-05-16T23:08:15;20.80;;;7.10;;
20042;SDS011;10182;52.896;6.496;2023-05-16T23:13:18;19.93;;;5.80;;
20042;SDS011;10182;52.896;6.496;2023-05-16T23:18:20;22.80;;;6.27;;
20042;SDS011;10182;52.896;6.496;2023-05-16T23:23:21;21.10;;;6.83;;
20042;SDS011;10182;52.896;6.496;2023-05-16T23:28:25;19.03;;;6.60;;
20042;SDS011;10182;52.896;6.496;2023-05-16T23:33:26;19.37;;;6.70;;
20042;SDS011;10182;52.896;6.496;2023-05-16T23:38:28;20.97;;;7.13;;
20042;SDS011;10182;52.896;6.496;2023-05-16T23:43:31;22.00;;;6.60;;
20042;SDS011;10182;52.896;6.496;2023-05-16T23:48:33;20.67;;;6.93;;
20042;SDS011;10182;52.896;6.496;2023-05-16T23:53:35;14.60;;;6.27;;
20042;SDS011;10182;52.896;6.496;2023-05-16T23:58:38;26.03;;;6.03;;
